createdAt,value
2018-03-22T00:02:22.472Z,0.10
2018-03-22T00:04:49.947Z,-0.19
2018-03-22T00:07:17.410Z,-0.23
2018-03-22T00:09:44.903Z,-0.37
2018-03-22T00:12:12.358Z,-0.24
2018-03-22T00:14:39.819Z,-0.36
2018-03-22T00:17:07.306Z,-0.42
2018-03-22T00:19:34.766Z,-0.33
2018-03-22T00:22:02.278Z,-0.34
2018-03-22T00:24:29.749Z,-0.40
2018-03-22T00:26:57.210Z,-0.50
2018-03-22T00:29:24.692Z,-0.64
2018-03-22T00:31:52.150Z,-0.42
2018-03-22T00:34:19.778Z,-0.41
2018-03-22T00:36:47.245Z,-0.25
2018-03-22T00:39:14.745Z,-0.24
2018-03-22T00:41:42.181Z,-0.27
2018-03-22T00:44:09.629Z,-0.20
2018-03-22T00:46:37.102Z,-0.14
2018-03-22T00:49:04.553Z,-0.17
2018-03-22T00:51:32.022Z,-0.28
2018-03-22T00:53:59.490Z,-0.33
2018-03-22T00:56:26.941Z,-0.42
2018-03-22T00:58:54.421Z,-0.34
2018-03-22T01:01:21.876Z,-0.52
2018-03-22T01:03:49.349Z,-0.41
2018-03-22T01:06:16.817Z,-0.53
2018-03-22T01:08:44.294Z,-0.37
2018-03-22T01:11:12.135Z,-0.43
2018-03-22T01:13:39.582Z,-0.26
2018-03-22T01:16:07.029Z,-0.43
2018-03-22T01:18:34.501Z,-0.39
2018-03-22T01:21:01.950Z,-0.30
2018-03-22T01:23:29.597Z,-0.30
2018-03-22T01:25:57.041Z,-0.43
2018-03-22T01:28:24.489Z,-0.43
2018-03-22T01:30:51.965Z,-0.58
2018-03-22T01:33:19.423Z,-0.62
2018-03-22T01:35:46.942Z,-0.64
2018-03-22T01:38:14.389Z,-0.68
2018-03-22T01:40:41.859Z,-0.68
2018-03-22T01:43:09.341Z,-0.70
2018-03-22T01:45:36.813Z,-0.82
2018-03-22T01:48:04.301Z,-0.61
2018-03-22T01:50:31.749Z,-0.68
2018-03-22T01:53:11.097Z,-0.59
2018-03-22T01:55:38.557Z,-0.52
2018-03-22T01:58:06.341Z,-0.56
2018-03-22T02:00:33.801Z,-0.61
2018-03-22T02:03:01.253Z,-0.54
2018-03-22T02:05:28.732Z,-0.63
2018-03-22T02:07:56.182Z,-0.65
2018-03-22T02:10:23.908Z,-0.64
2018-03-22T02:12:51.356Z,-0.50
2018-03-22T02:15:18.817Z,-0.41
2018-03-22T02:17:46.285Z,-0.51
2018-03-22T02:20:13.736Z,-0.51
2018-03-22T02:22:41.239Z,-0.50
2018-03-22T02:25:08.695Z,-0.42
2018-03-22T02:27:36.150Z,-0.32
2018-03-22T02:30:03.619Z,-0.39
2018-03-22T02:32:31.104Z,-0.46
2018-03-22T02:34:58.581Z,-0.45
2018-03-22T02:37:26.065Z,-0.36
2018-03-22T02:39:53.517Z,-0.26
2018-03-22T02:42:21.009Z,-0.33
2018-03-22T02:44:48.461Z,-0.33
2018-03-22T02:47:15.958Z,-0.20
2018-03-22T02:49:43.430Z,-0.16
2018-03-22T02:52:10.886Z,-0.25
2018-03-22T02:54:38.362Z,-0.22
2018-03-22T02:57:05.834Z,-0.15
2018-03-22T02:59:33.286Z,-0.14
2018-03-22T03:02:00.790Z,-0.16
2018-03-22T03:04:28.241Z,-0.16
2018-03-22T03:06:55.695Z,-0.11
2018-03-22T03:09:23.170Z,-0.03
2018-03-22T03:11:50.653Z,-0.01
2018-03-22T03:14:18.098Z,-0.07
2018-03-22T03:16:45.577Z,-0.10
2018-03-22T03:19:13.033Z,-0.02
2018-03-22T03:21:40.479Z,0.00
2018-03-22T03:24:08.070Z,-0.12
2018-03-22T03:26:35.525Z,-0.09
2018-03-22T03:29:02.965Z,0.12
2018-03-22T03:31:30.430Z,0.26
2018-03-22T03:33:57.881Z,0.31
2018-03-22T03:36:25.327Z,0.30
2018-03-22T03:38:52.790Z,0.26
2018-03-22T03:41:20.293Z,0.36
2018-03-22T03:43:47.714Z,0.33
2018-03-22T03:46:15.176Z,0.33
2018-03-22T03:48:42.625Z,0.36
2018-03-22T03:51:10.111Z,0.30
2018-03-22T03:53:37.625Z,0.39
2018-03-22T03:56:05.074Z,0.34
2018-03-22T03:58:32.535Z,0.27
2018-03-22T04:01:00.017Z,0.41
2018-03-22T04:03:27.469Z,0.33
2018-03-22T04:05:54.917Z,0.35
2018-03-22T04:08:22.398Z,0.50
2018-03-22T04:10:49.860Z,0.68
2018-03-22T04:13:17.313Z,0.77
2018-03-22T04:15:44.781Z,0.73
2018-03-22T04:18:12.232Z,0.69
2018-03-22T04:20:39.680Z,0.74
2018-03-22T04:23:07.158Z,0.75
2018-03-22T04:25:34.610Z,0.70
2018-03-22T04:28:02.073Z,0.80
2018-03-22T04:30:29.577Z,0.90
2018-03-22T04:32:57.021Z,1.09
2018-03-22T04:35:24.471Z,1.18
2018-03-22T04:37:51.958Z,1.20
2018-03-22T04:40:19.412Z,1.14
2018-03-22T04:42:46.866Z,0.91
2018-03-22T04:45:14.374Z,0.92
2018-03-22T04:47:41.818Z,0.94
2018-03-22T04:50:09.265Z,0.90
2018-03-22T04:52:36.902Z,0.92
2018-03-22T04:55:04.373Z,0.83
2018-03-22T04:57:31.818Z,0.82
2018-03-22T04:59:59.418Z,0.80
2018-03-22T05:02:26.869Z,0.81
2018-03-22T05:04:54.317Z,0.85
2018-03-22T05:07:22.065Z,0.85
2018-03-22T05:09:49.517Z,0.81
2018-03-22T05:12:16.977Z,0.66
2018-03-22T05:14:44.841Z,0.73
2018-03-22T05:17:12.298Z,0.76
2018-03-22T05:19:39.752Z,0.56
2018-03-22T05:22:07.234Z,0.64
2018-03-22T05:24:34.689Z,0.69
2018-03-22T05:27:02.163Z,0.74
2018-03-22T05:29:29.760Z,0.85
2018-03-22T05:31:57.253Z,0.65
2018-03-22T05:34:24.701Z,0.84
2018-03-22T05:36:52.275Z,1.04
2018-03-22T05:39:19.726Z,0.94
2018-03-22T05:41:47.173Z,1.06
2018-03-22T05:44:14.793Z,1.09
2018-03-22T05:46:42.241Z,1.09
2018-03-22T05:49:09.690Z,1.15
2018-03-22T05:51:37.199Z,1.08
2018-03-22T05:54:04.649Z,1.14
2018-03-22T05:56:32.130Z,1.05
2018-03-22T05:58:59.621Z,1.08
2018-03-22T06:01:27.091Z,1.04
2018-03-22T06:03:54.549Z,1.15
2018-03-22T06:06:22.354Z,1.25
2018-03-22T06:08:49.820Z,1.44
2018-03-22T06:11:17.278Z,1.58
2018-03-22T06:13:44.765Z,1.52
2018-03-22T06:16:12.211Z,1.67
2018-03-22T06:18:39.661Z,1.75
2018-03-22T06:21:07.149Z,1.83
2018-03-22T06:23:34.603Z,1.90
2018-03-22T06:26:02.041Z,1.99
2018-03-22T06:28:29.757Z,2.06
2018-03-22T06:30:57.206Z,2.12
2018-03-22T06:33:24.657Z,2.18
2018-03-22T06:35:52.257Z,2.23
2018-03-22T06:38:19.702Z,2.27
2018-03-22T06:40:47.161Z,2.33
2018-03-22T06:43:14.834Z,2.46
2018-03-22T06:45:42.274Z,2.53
2018-03-22T06:48:09.718Z,2.56
2018-03-22T06:50:37.186Z,2.60
2018-03-22T06:53:04.641Z,2.68
2018-03-22T06:55:32.117Z,2.66
2018-03-22T06:57:59.558Z,2.68
2018-03-22T07:00:26.993Z,2.69
2018-03-22T07:02:54.464Z,2.73
2018-03-22T07:05:21.913Z,2.76
2018-03-22T07:07:49.488Z,2.79
2018-03-22T07:10:16.949Z,2.87
2018-03-22T07:12:44.404Z,2.90
2018-03-22T07:15:11.881Z,3.00
2018-03-22T07:17:39.337Z,3.00
2018-03-22T07:20:06.814Z,3.13
2018-03-22T07:22:34.281Z,3.12
2018-03-22T07:25:01.726Z,3.00
2018-03-22T07:27:29.197Z,3.18
2018-03-22T07:29:56.655Z,3.31
2018-03-22T07:32:24.237Z,3.21
2018-03-22T07:34:51.691Z,3.35
2018-03-22T07:37:19.142Z,3.49
2018-03-22T07:39:46.621Z,3.54
2018-03-22T07:42:14.086Z,3.48
2018-03-22T07:44:41.591Z,3.53
2018-03-22T07:47:09.046Z,3.50
2018-03-22T07:49:36.524Z,3.51
2018-03-22T07:52:03.998Z,3.78
2018-03-22T07:54:31.450Z,3.60
2018-03-22T07:56:59.170Z,3.57
2018-03-22T07:59:26.625Z,3.72
2018-03-22T08:01:54.093Z,3.78
2018-03-22T08:04:21.566Z,3.87
2018-03-22T08:06:49.038Z,4.00
2018-03-22T08:09:16.562Z,4.01
2018-03-22T08:11:44.014Z,4.00
2018-03-22T08:14:11.498Z,3.93
2018-03-22T08:16:38.982Z,4.28
2018-03-22T08:19:06.442Z,4.27
2018-03-22T08:21:34.278Z,4.42
2018-03-22T08:24:01.725Z,4.63
2018-03-22T08:26:29.209Z,4.44
2018-03-22T08:28:56.678Z,4.64
2018-03-22T08:31:24.125Z,4.55
2018-03-22T08:33:51.641Z,4.46
2018-03-22T08:36:19.102Z,4.28
2018-03-22T08:38:47.131Z,4.31
2018-03-22T08:41:14.675Z,4.41
2018-03-22T08:43:42.075Z,4.22
2018-03-22T08:46:09.798Z,4.37
2018-03-22T08:48:37.245Z,4.29
2018-03-22T08:51:04.705Z,4.31
2018-03-22T08:53:32.173Z,4.25
2018-03-22T08:55:59.621Z,4.24
2018-03-22T08:58:27.246Z,4.08
2018-03-22T09:00:54.694Z,3.93
2018-03-22T09:03:22.152Z,3.95
2018-03-22T09:05:49.622Z,3.71
2018-03-22T09:08:17.081Z,3.80
2018-03-22T09:10:44.573Z,3.71
2018-03-22T09:13:12.045Z,3.69
2018-03-22T09:15:39.541Z,3.64
2018-03-22T09:18:07.009Z,3.58
2018-03-22T09:20:34.467Z,3.58
2018-03-22T09:23:01.991Z,3.53
2018-03-22T09:25:29.442Z,3.54
2018-03-22T09:27:56.977Z,3.32
2018-03-22T09:30:24.753Z,3.60
2018-03-22T09:32:52.206Z,3.57
2018-03-22T09:35:19.801Z,3.37
2018-03-22T09:37:47.259Z,3.31
2018-03-22T09:40:14.717Z,3.32
2018-03-22T09:42:42.189Z,3.43
2018-03-22T09:45:09.641Z,3.30
2018-03-22T09:47:37.121Z,3.41
2018-03-22T09:50:04.610Z,3.43
2018-03-22T09:52:33.009Z,3.48
2018-03-22T09:55:00.481Z,3.56
2018-03-22T09:57:27.950Z,3.62
2018-03-22T09:59:55.617Z,3.50
2018-03-22T10:02:23.080Z,3.55
2018-03-22T10:04:50.538Z,3.67
2018-03-22T10:07:18.013Z,3.71
2018-03-22T10:09:45.462Z,3.65
2018-03-22T10:12:12.963Z,3.54
2018-03-22T10:14:40.425Z,3.41
2018-03-22T10:17:07.897Z,3.44
2018-03-22T10:19:35.377Z,3.40
2018-03-22T10:22:02.830Z,3.62
2018-03-22T10:24:30.305Z,3.67
2018-03-22T10:26:57.770Z,3.87
2018-03-22T10:29:25.240Z,3.83
2018-03-22T10:31:52.709Z,3.90
2018-03-22T10:34:20.174Z,3.80
2018-03-22T10:36:47.658Z,4.02
2018-03-22T10:39:15.102Z,4.00
2018-03-22T10:41:42.554Z,4.19
2018-03-22T10:44:10.029Z,4.03
2018-03-22T10:46:37.486Z,4.06
2018-03-22T10:49:05.209Z,4.09
2018-03-22T10:51:32.657Z,4.17
2018-03-22T10:54:00.107Z,4.37
2018-03-22T10:56:28.539Z,4.48
2018-03-22T10:58:55.986Z,4.44
2018-03-22T11:01:29.320Z,4.39
2018-03-22T11:03:56.773Z,4.50
2018-03-22T11:06:24.225Z,4.64
2018-03-22T11:08:51.713Z,4.87
2018-03-22T11:11:19.192Z,4.64
2018-03-22T11:13:47.046Z,4.62
2018-03-22T11:16:14.517Z,4.69
2018-03-22T11:18:41.965Z,4.61
2018-03-22T11:21:09.435Z,4.73
2018-03-22T11:23:36.891Z,4.71
2018-03-22T11:26:04.725Z,4.83
2018-03-22T11:28:32.196Z,4.71
2018-03-22T11:30:59.646Z,4.73
2018-03-22T11:33:27.118Z,4.78
2018-03-22T11:35:54.573Z,4.75
2018-03-22T11:38:22.225Z,4.77
2018-03-22T11:40:49.694Z,4.90
2018-03-22T11:43:17.148Z,4.84
2018-03-22T11:45:44.623Z,4.75
2018-03-22T11:48:12.097Z,4.93
2018-03-22T11:50:39.650Z,4.83
2018-03-22T11:53:07.121Z,4.61
2018-03-22T11:55:34.576Z,4.64
2018-03-22T11:58:02.056Z,4.71
2018-03-22T12:00:29.507Z,4.63
2018-03-22T12:02:57.202Z,4.70
2018-03-22T12:05:24.675Z,5.02
2018-03-22T12:07:52.139Z,4.82
2018-03-22T12:10:19.620Z,4.76
2018-03-22T12:12:47.062Z,4.83
2018-03-22T12:15:14.681Z,4.87
2018-03-22T12:17:42.174Z,5.02
2018-03-22T12:20:09.624Z,5.15
2018-03-22T12:22:37.110Z,4.73
2018-03-22T12:25:04.592Z,4.89
2018-03-22T12:27:32.366Z,4.91
2018-03-22T12:29:59.814Z,4.97
2018-03-22T12:32:27.259Z,4.93
2018-03-22T12:34:54.739Z,5.09
2018-03-22T12:37:22.190Z,5.11
2018-03-22T12:39:49.845Z,5.21
2018-03-22T12:42:17.313Z,5.23
2018-03-22T12:44:44.757Z,5.30
2018-03-22T12:47:12.258Z,5.19
2018-03-22T12:49:39.707Z,5.32
2018-03-22T12:52:07.400Z,5.05
2018-03-22T12:54:34.869Z,5.26
2018-03-22T12:57:02.315Z,5.41
2018-03-22T12:59:29.793Z,4.97
2018-03-22T13:01:57.237Z,5.01
2018-03-22T13:04:24.865Z,5.00
2018-03-22T13:06:52.309Z,5.20
2018-03-22T13:09:19.755Z,5.19
2018-03-22T13:11:47.225Z,5.23
2018-03-22T13:14:14.694Z,5.35
2018-03-22T13:16:42.314Z,5.34
2018-03-22T13:19:09.766Z,5.30
2018-03-22T13:21:37.221Z,5.23
2018-03-22T13:24:04.681Z,5.33
2018-03-22T13:26:32.126Z,5.26
2018-03-22T13:28:59.970Z,5.49
2018-03-22T13:31:27.416Z,5.59
2018-03-22T13:33:54.861Z,5.62
2018-03-22T13:36:22.335Z,5.48
2018-03-22T13:38:49.825Z,5.72
2018-03-22T13:41:17.334Z,5.64
2018-03-22T13:43:44.777Z,5.37
2018-03-22T13:46:12.228Z,5.54
2018-03-22T13:48:39.693Z,5.55
2018-03-22T13:51:07.138Z,5.36
2018-03-22T13:53:34.617Z,5.60
2018-03-22T13:56:02.061Z,5.48
2018-03-22T13:58:29.519Z,5.39
2018-03-22T14:00:56.989Z,5.37
2018-03-22T14:03:24.430Z,5.42
2018-03-22T14:05:51.934Z,5.48
2018-03-22T14:08:19.373Z,5.70
2018-03-22T14:10:46.817Z,5.75
2018-03-22T14:13:14.309Z,5.65
2018-03-22T14:15:41.754Z,5.56
2018-03-22T14:18:09.581Z,5.61
2018-03-22T14:20:37.025Z,5.52
2018-03-22T14:23:04.462Z,5.75
2018-03-22T14:25:31.958Z,5.54
2018-03-22T14:27:59.396Z,5.73
2018-03-22T14:30:26.879Z,5.63
2018-03-22T14:32:54.323Z,5.49
2018-03-22T14:35:21.775Z,5.56
2018-03-22T14:37:49.274Z,5.52
2018-03-22T14:40:16.722Z,5.38
2018-03-22T14:42:44.199Z,5.39
2018-03-22T14:45:11.638Z,5.32
2018-03-22T14:47:39.110Z,5.45
2018-03-22T14:50:06.582Z,5.51
2018-03-22T14:52:34.021Z,5.37
2018-03-22T14:55:01.666Z,5.33
2018-03-22T14:57:29.116Z,5.40
2018-03-22T14:59:56.598Z,5.30
2018-03-22T15:02:24.085Z,5.45
2018-03-22T15:04:51.549Z,5.41
2018-03-22T15:07:19.024Z,5.45
2018-03-22T15:09:46.484Z,5.32
2018-03-22T15:12:13.960Z,5.55
2018-03-22T15:14:41.417Z,5.47
2018-03-22T15:17:08.868Z,5.55
2018-03-22T15:19:36.353Z,5.54
2018-03-22T15:22:03.801Z,5.48
2018-03-22T15:24:31.240Z,5.72
2018-03-22T15:26:58.712Z,5.54
2018-03-22T15:29:26.161Z,5.39
2018-03-22T15:31:53.986Z,5.51
2018-03-22T15:34:21.430Z,5.68
2018-03-22T15:36:48.888Z,5.50
2018-03-22T15:39:16.369Z,5.37
2018-03-22T15:41:43.818Z,5.54
2018-03-22T15:44:11.307Z,5.32
2018-03-22T15:46:38.760Z,5.40
2018-03-22T15:49:06.197Z,5.58
2018-03-22T15:51:33.663Z,5.44
2018-03-22T15:54:01.101Z,5.30
2018-03-22T15:56:28.745Z,5.36
2018-03-22T15:58:56.417Z,5.27
2018-03-22T16:01:23.873Z,5.64
2018-03-22T16:03:51.342Z,5.36
2018-03-22T16:06:18.803Z,5.22
2018-03-22T16:08:46.414Z,5.30
2018-03-22T16:11:13.874Z,5.21
2018-03-22T16:13:41.321Z,5.27
2018-03-22T16:16:08.810Z,5.59
2018-03-22T16:18:36.254Z,5.26
2018-03-22T16:21:03.726Z,5.47
2018-03-22T16:23:31.162Z,5.34
2018-03-22T16:25:58.613Z,5.24
2018-03-22T16:28:26.079Z,5.17
2018-03-22T16:30:53.541Z,5.23
2018-03-22T16:33:21.035Z,5.19
2018-03-22T16:35:48.482Z,5.33
2018-03-22T16:38:15.934Z,5.19
2018-03-22T16:40:43.439Z,5.33
2018-03-22T16:43:11.233Z,5.20
2018-03-22T16:45:38.883Z,5.19
2018-03-22T16:48:06.321Z,5.26
2018-03-22T16:50:33.777Z,5.33
2018-03-22T16:53:01.257Z,5.28
2018-03-22T16:55:28.701Z,5.33
2018-03-22T16:57:56.153Z,5.35
2018-03-22T17:00:23.631Z,5.51
2018-03-22T17:02:51.077Z,5.26
2018-03-22T17:05:18.813Z,5.34
2018-03-22T17:07:46.275Z,5.42
2018-03-22T17:10:13.728Z,5.28
2018-03-22T17:12:41.210Z,5.31
2018-03-22T17:15:08.649Z,5.50
2018-03-22T17:17:36.381Z,5.40
2018-03-22T17:20:03.827Z,5.46
2018-03-22T17:22:31.270Z,5.37
2018-03-22T17:24:58.746Z,5.39
2018-03-22T17:27:26.188Z,5.30
2018-03-22T17:29:53.930Z,5.27
2018-03-22T17:32:21.369Z,5.20
2018-03-22T17:34:49.055Z,5.15
2018-03-22T17:37:16.521Z,5.09
2018-03-22T17:39:43.966Z,5.06
2018-03-22T17:42:11.455Z,5.05
2018-03-22T17:44:38.910Z,5.12
2018-03-22T17:47:07.217Z,5.05
2018-03-22T17:49:34.694Z,4.94
2018-03-22T17:52:02.150Z,4.95
2018-03-22T17:54:29.970Z,4.91
2018-03-22T17:56:57.414Z,5.02
2018-03-22T17:59:24.898Z,5.03
2018-03-22T18:01:52.386Z,5.06
2018-03-22T18:04:19.840Z,5.03
2018-03-22T18:06:47.326Z,5.05
2018-03-22T18:09:14.801Z,5.04
2018-03-22T18:11:42.276Z,5.04
2018-03-22T18:14:09.745Z,5.10
2018-03-22T18:16:37.229Z,5.09
2018-03-22T18:19:04.711Z,5.11
2018-03-22T18:21:32.165Z,5.14
2018-03-22T18:23:59.610Z,5.13
2018-03-22T18:26:27.095Z,5.15
2018-03-22T18:28:54.575Z,5.10
2018-03-22T18:31:22.274Z,5.09
2018-03-22T18:33:49.714Z,5.06
2018-03-22T18:36:17.167Z,5.04
2018-03-22T18:38:44.669Z,5.05
2018-03-22T18:41:12.134Z,5.01
2018-03-22T18:43:39.618Z,4.97
2018-03-22T18:46:07.081Z,5.07
2018-03-22T18:48:34.522Z,5.00
2018-03-22T18:51:02.014Z,4.96
2018-03-22T18:53:29.454Z,5.02
2018-03-22T18:55:57.114Z,5.03
2018-03-22T18:58:24.558Z,5.08
2018-03-22T19:00:52.003Z,5.04
2018-03-22T19:03:19.490Z,5.10
2018-03-22T19:05:46.942Z,5.15
2018-03-22T19:08:14.981Z,5.09
2018-03-22T19:10:42.453Z,5.08
2018-03-22T19:13:09.893Z,5.12
2018-03-22T19:15:37.362Z,5.06
2018-03-22T19:18:04.817Z,5.06
2018-03-22T19:20:32.429Z,4.99
2018-03-22T19:22:59.903Z,4.96
2018-03-22T19:25:27.353Z,4.98
2018-03-22T19:27:54.950Z,5.01
2018-03-22T19:30:22.407Z,5.10
2018-03-22T19:32:50.002Z,5.08
2018-03-22T19:35:17.513Z,5.11
2018-03-22T19:37:45.887Z,5.05
2018-03-22T19:40:13.358Z,5.06
2018-03-22T19:42:40.828Z,5.11
2018-03-22T19:45:08.547Z,5.12
2018-03-22T19:47:35.981Z,5.21
2018-03-22T19:50:04.246Z,5.35
2018-03-22T19:52:31.726Z,5.20
2018-03-22T19:54:59.170Z,5.20
2018-03-22T19:57:26.877Z,5.23
2018-03-22T19:59:54.318Z,5.17
2018-03-22T20:02:21.764Z,5.17
2018-03-22T20:04:49.241Z,5.17
2018-03-22T20:07:18.566Z,5.20
2018-03-22T20:09:46.345Z,5.19
2018-03-22T20:12:13.792Z,5.16
2018-03-22T20:14:41.266Z,5.19
2018-03-22T20:17:08.796Z,5.21
2018-03-22T20:19:36.242Z,5.32
2018-03-22T20:22:03.730Z,5.17
2018-03-22T20:24:31.468Z,5.11
2018-03-22T20:26:58.945Z,5.08
2018-03-22T20:29:26.581Z,5.05
2018-03-22T20:31:54.020Z,5.29
2018-03-22T20:34:22.462Z,5.12
2018-03-22T20:36:49.910Z,5.06
2018-03-22T20:39:17.362Z,5.01
2018-03-22T20:41:44.875Z,5.17
2018-03-22T20:44:17.550Z,5.14
2018-03-22T20:46:47.873Z,5.08
2018-03-22T20:49:15.340Z,5.00
2018-03-22T20:51:42.792Z,5.03
2018-03-22T20:54:10.263Z,5.05
2018-03-22T20:56:37.725Z,4.96
2018-03-22T20:59:05.204Z,4.86
2018-03-22T21:01:32.664Z,4.94
2018-03-22T21:04:00.130Z,4.98
2018-03-22T21:06:27.606Z,4.94
2018-03-22T21:08:55.090Z,4.89
2018-03-22T21:11:22.575Z,4.85
2018-03-22T21:13:50.034Z,4.76
2018-03-22T21:16:17.499Z,4.73
2018-03-22T21:18:44.957Z,4.69
2018-03-22T21:21:12.406Z,4.61
2018-03-22T21:23:39.933Z,4.51
2018-03-22T21:26:07.379Z,4.43
2018-03-22T21:28:34.839Z,4.44
2018-03-22T21:31:02.296Z,4.27
2018-03-22T21:33:29.765Z,4.43
2018-03-22T21:35:57.387Z,4.35
2018-03-22T21:38:24.864Z,4.31
2018-03-22T21:40:52.318Z,4.48
2018-03-22T21:43:19.778Z,4.39
2018-03-22T21:45:47.218Z,4.50
2018-03-22T21:48:14.702Z,4.46
2018-03-22T21:50:48.081Z,4.43
2018-03-22T21:53:15.569Z,4.35
2018-03-22T21:55:43.042Z,4.35
2018-03-22T21:58:10.498Z,4.33
2018-03-22T22:00:37.970Z,4.45
2018-03-22T22:03:05.475Z,4.53
2018-03-22T22:05:33.057Z,4.57
2018-03-22T22:08:00.501Z,4.54
2018-03-22T22:10:27.979Z,4.53
2018-03-22T22:12:55.453Z,4.46
2018-03-22T22:15:22.946Z,4.48
2018-03-22T22:17:50.657Z,4.45
2018-03-22T22:20:18.100Z,4.45
2018-03-22T22:22:45.557Z,4.46
2018-03-22T22:25:13.032Z,4.49
2018-03-22T22:27:40.493Z,4.70
2018-03-22T22:30:07.978Z,4.79
2018-03-22T22:32:35.430Z,4.83
2018-03-22T22:35:02.893Z,4.86
2018-03-22T22:37:30.378Z,4.86
2018-03-22T22:39:57.842Z,4.91
2018-03-22T22:42:25.409Z,4.89
2018-03-22T22:44:52.865Z,4.90
2018-03-22T22:47:20.338Z,4.90
2018-03-22T22:49:47.841Z,4.92
2018-03-22T22:52:15.297Z,4.97
2018-03-22T22:54:43.145Z,4.92
2018-03-22T22:57:10.608Z,4.82
2018-03-22T22:59:38.061Z,4.87
2018-03-22T23:02:05.552Z,4.95
2018-03-22T23:04:33.001Z,4.86
2018-03-22T23:07:00.489Z,4.84
2018-03-22T23:09:27.961Z,4.85
2018-03-22T23:11:55.415Z,4.89
2018-03-22T23:14:22.885Z,4.93
2018-03-22T23:16:50.349Z,4.96
2018-03-22T23:19:17.797Z,4.97
2018-03-22T23:21:45.285Z,5.00
2018-03-22T23:24:12.783Z,5.05
2018-03-22T23:26:40.229Z,5.06
2018-03-22T23:29:07.730Z,5.07
2018-03-22T23:31:35.193Z,5.08
2018-03-22T23:34:02.641Z,5.03
2018-03-22T23:36:30.136Z,5.09
2018-03-22T23:38:57.602Z,5.08
2018-03-22T23:41:25.084Z,5.08
2018-03-22T23:43:52.591Z,4.89
2018-03-22T23:46:20.037Z,4.90
2018-03-22T23:48:47.485Z,4.89
2018-03-22T23:51:14.961Z,4.87
2018-03-22T23:53:42.419Z,4.87
2018-03-22T23:56:09.880Z,4.88
2018-03-22T23:58:37.350Z,4.89
